Terminal Aerodrome Forecast
Issued by NWS Wichita, KS

Home | Current Version | Previous Version | Text Only | Print | Product List | Glossary Off
Versions: 1 2 3 4 5 6 7 8 9 10 11 12

000
FTUS43 KICT 261100
TAFICT
TAF
KICT 261127Z 2612/2712 18014KT P6SM SCT150 BKN250
     FM261500 22017G24KT P6SM SCT150
     FM270100 18006KT P6SM BKN200
     FM270900 02008KT P6SM BKN150=

USA.gov is the U.S. government's official web portal to all federal, state and local government web resources and services.